createdAt,value
2022-12-09T00:01:18.204Z,0.29
2022-12-09T00:03:47.085Z,0.24
2022-12-09T00:06:17.980Z,0.16
2022-12-09T00:08:46.437Z,0.07
2022-12-09T00:11:14.699Z,-0.02
2022-12-09T00:13:43.168Z,-0.07
2022-12-09T00:16:14.101Z,-0.16
2022-12-09T00:18:43.550Z,-0.20
2022-12-09T00:21:16.062Z,-0.23
2022-12-09T00:23:43.714Z,-0.24
2022-12-09T00:26:12.440Z,-0.20
2022-12-09T00:28:41.038Z,-0.18
2022-12-09T00:31:09.255Z,-0.21
2022-12-09T00:33:37.251Z,-0.27
2022-12-09T00:36:08.730Z,-0.34
2022-12-09T00:38:37.242Z,-0.35
2022-12-09T00:41:06.096Z,-0.34
2022-12-09T00:43:34.866Z,-0.36
2022-12-09T00:46:03.076Z,-0.31
2022-12-09T00:48:31.052Z,-0.26
2022-12-09T00:50:58.910Z,-0.32
2022-12-09T00:53:28.525Z,-0.32
2022-12-09T00:55:56.420Z,-0.29
2022-12-09T00:58:24.560Z,-0.35
2022-12-09T01:00:53.745Z,-0.32
2022-12-09T01:03:22.269Z,-0.36
2022-12-09T01:05:50.571Z,-0.38
2022-12-09T01:08:19.328Z,-0.38
2022-12-09T01:10:48.619Z,-0.37
2022-12-09T01:13:17.471Z,-0.38
2022-12-09T01:15:45.480Z,-0.35
2022-12-09T01:18:13.570Z,-0.41
2022-12-09T01:20:41.582Z,-0.39
2022-12-09T01:23:09.315Z,-0.41
2022-12-09T01:25:39.312Z,-0.38
2022-12-09T01:28:08.513Z,-0.35
2022-12-09T01:30:36.540Z,-0.39
2022-12-09T01:33:04.547Z,-0.40
2022-12-09T01:35:32.369Z,-0.37
2022-12-09T01:38:00.084Z,-0.32
2022-12-09T01:40:28.059Z,-0.32
2022-12-09T01:42:55.980Z,-0.41
2022-12-09T01:45:43.582Z,-0.40
2022-12-09T01:48:14.241Z,-0.37
2022-12-09T01:50:47.000Z,-0.27
2022-12-09T01:53:16.168Z,-0.34
2022-12-09T01:55:43.968Z,-0.36
2022-12-09T01:58:11.975Z,-0.32
2022-12-09T02:00:41.847Z,-0.43
2022-12-09T02:03:09.874Z,-0.39
2022-12-09T02:05:38.593Z,-0.37
2022-12-09T02:08:09.084Z,-0.46
2022-12-09T02:10:40.904Z,-0.52
2022-12-09T02:13:19.810Z,-0.46
2022-12-09T02:15:53.407Z,-0.47
2022-12-09T02:18:27.211Z,-0.47
2022-12-09T02:21:00.830Z,-0.52
2022-12-09T02:23:34.079Z,-0.54
2022-12-09T02:26:10.758Z,-0.52
2022-12-09T02:29:01.743Z,-0.52
2022-12-09T02:31:46.301Z,-0.39
2022-12-09T02:34:19.022Z,-0.42
2022-12-09T02:36:59.034Z,-0.41
2022-12-09T02:39:33.582Z,-0.42
2022-12-09T02:42:04.595Z,-0.43
2022-12-09T02:44:33.139Z,-0.44
2022-12-09T02:47:01.871Z,-0.42
2022-12-09T02:49:32.729Z,-0.45
2022-12-09T02:52:01.458Z,-0.40
2022-12-09T02:54:32.407Z,-0.48
2022-12-09T02:57:05.115Z,-0.52
2022-12-09T02:59:32.830Z,-0.56
2022-12-09T03:02:15.300Z,-0.55
2022-12-09T03:04:50.516Z,-0.63
2022-12-09T03:07:27.935Z,-0.67
2022-12-09T03:10:05.106Z,-0.55
2022-12-09T03:12:36.106Z,-0.49
2022-12-09T03:15:07.351Z,-0.45
2022-12-09T03:17:40.285Z,-0.45
2022-12-09T03:20:14.221Z,-0.43
2022-12-09T03:22:44.465Z,-0.46
2022-12-09T03:25:16.461Z,-0.40
2022-12-09T03:27:52.321Z,-0.38
2022-12-09T03:30:20.728Z,-0.28
2022-12-09T03:32:49.096Z,-0.22
2022-12-09T03:35:22.177Z,-0.29
2022-12-09T03:37:52.007Z,-0.16
2022-12-09T03:40:26.230Z,-0.03
2022-12-09T03:42:59.555Z,0.03
2022-12-09T03:45:28.804Z,0.09
2022-12-09T03:47:57.227Z,0.17
2022-12-09T03:50:30.169Z,0.13
2022-12-09T03:53:04.479Z,0.17
2022-12-09T03:55:38.277Z,0.20
2022-12-09T03:58:07.232Z,0.19
2022-12-09T04:00:38.492Z,0.25
2022-12-09T04:03:08.159Z,0.22
2022-12-09T04:05:37.347Z,0.24
2022-12-09T04:08:05.656Z,0.26
2022-12-09T04:10:33.933Z,0.29
2022-12-09T04:13:01.948Z,0.12
2022-12-09T04:15:30.094Z,0.16
2022-12-09T04:17:57.924Z,0.18
2022-12-09T04:20:25.791Z,0.15
2022-12-09T04:22:54.959Z,0.00
2022-12-09T04:25:22.885Z,-0.06
2022-12-09T04:27:50.575Z,-0.19
2022-12-09T04:30:18.425Z,-0.08
2022-12-09T04:32:46.254Z,0.04
2022-12-09T04:35:14.336Z,-0.01
2022-12-09T04:37:42.018Z,-0.07
2022-12-09T04:40:16.748Z,0.02
2022-12-09T04:42:47.571Z,-0.01
2022-12-09T04:45:15.409Z,0.11
2022-12-09T04:47:43.109Z,0.10
2022-12-09T04:50:12.093Z,0.00
2022-12-09T04:52:40.138Z,0.03
2022-12-09T04:55:08.557Z,0.10
2022-12-09T04:57:37.772Z,0.13
2022-12-09T05:00:07.589Z,0.12
2022-12-09T05:02:35.839Z,0.25
2022-12-09T05:05:04.609Z,0.29
2022-12-09T05:07:32.942Z,0.27
2022-12-09T05:10:01.366Z,0.34
2022-12-09T05:12:29.222Z,0.33
2022-12-09T05:14:58.960Z,0.28
2022-12-09T05:17:26.909Z,0.20
2022-12-09T05:19:54.807Z,0.21
2022-12-09T05:22:22.830Z,0.25
2022-12-09T05:24:50.843Z,0.20
2022-12-09T05:27:18.575Z,0.15
2022-12-09T05:29:47.610Z,0.13
2022-12-09T05:32:16.890Z,0.12
2022-12-09T05:34:45.363Z,0.14
2022-12-09T05:37:15.328Z,0.21
2022-12-09T05:39:43.202Z,0.25
2022-12-09T05:42:11.129Z,0.17
2022-12-09T05:44:39.036Z,0.15
2022-12-09T05:47:06.852Z,0.21
2022-12-09T05:49:36.482Z,0.07
2022-12-09T05:52:04.501Z,-0.05
2022-12-09T05:54:32.396Z,0.03
2022-12-09T05:57:01.343Z,0.06
2022-12-09T05:59:29.383Z,0.11
2022-12-09T06:01:57.381Z,0.02
2022-12-09T06:04:25.542Z,0.07
2022-12-09T06:06:55.138Z,0.06
2022-12-09T06:09:23.396Z,0.02
2022-12-09T06:11:51.369Z,0.15
2022-12-09T06:14:19.724Z,0.18
2022-12-09T06:16:47.558Z,0.22
2022-12-09T06:19:15.419Z,0.22
2022-12-09T06:21:43.712Z,0.31
2022-12-09T06:24:13.063Z,0.24
2022-12-09T06:26:41.170Z,0.32
2022-12-09T06:29:10.003Z,0.24
2022-12-09T06:31:37.985Z,0.19
2022-12-09T06:34:06.144Z,0.21
2022-12-09T06:36:33.939Z,0.18
2022-12-09T06:39:10.167Z,0.14
2022-12-09T06:41:42.416Z,0.23
2022-12-09T06:44:15.668Z,0.25
2022-12-09T06:46:47.968Z,0.32
2022-12-09T06:49:15.889Z,0.37
2022-12-09T06:51:43.967Z,0.25
2022-12-09T06:54:11.761Z,0.09
2022-12-09T06:56:41.221Z,0.17
2022-12-09T06:59:10.757Z,0.21
2022-12-09T07:01:38.967Z,0.14
2022-12-09T07:04:08.273Z,0.12
2022-12-09T07:06:39.120Z,0.24
2022-12-09T07:09:09.672Z,0.19
2022-12-09T07:11:38.551Z,0.14
2022-12-09T07:14:08.147Z,-0.08
2022-12-09T07:16:36.754Z,0.04
2022-12-09T07:19:05.398Z,0.07
2022-12-09T07:21:33.860Z,0.05
2022-12-09T07:24:02.882Z,0.02
2022-12-09T07:26:32.782Z,0.08
2022-12-09T07:29:02.976Z,0.18
2022-12-09T07:31:32.720Z,0.23
2022-12-09T07:34:01.091Z,0.16
2022-12-09T07:36:30.950Z,0.14
2022-12-09T07:39:00.229Z,0.29
2022-12-09T07:41:28.390Z,0.42
2022-12-09T07:43:57.321Z,0.41
2022-12-09T07:46:27.637Z,0.10
2022-12-09T07:48:58.666Z,0.25
2022-12-09T07:51:29.579Z,0.32
2022-12-09T07:53:57.919Z,0.35
2022-12-09T07:56:28.409Z,0.34
2022-12-09T07:58:57.454Z,0.50
2022-12-09T08:01:27.652Z,0.47
2022-12-09T08:03:58.069Z,0.45
2022-12-09T08:06:28.511Z,0.52
2022-12-09T08:08:59.628Z,0.72
2022-12-09T08:11:30.204Z,0.49
2022-12-09T08:13:59.739Z,0.73
2022-12-09T08:16:29.292Z,0.47
2022-12-09T08:18:58.668Z,0.61
2022-12-09T08:21:29.289Z,0.61
2022-12-09T08:23:59.177Z,0.66
2022-12-09T08:26:29.313Z,0.69
2022-12-09T08:28:57.996Z,0.82
2022-12-09T08:31:27.941Z,0.83
2022-12-09T08:33:56.974Z,0.89
2022-12-09T08:36:28.479Z,0.88
2022-12-09T08:38:56.817Z,0.81
2022-12-09T08:41:41.895Z,1.04
2022-12-09T08:44:12.159Z,1.02
2022-12-09T08:46:42.583Z,0.87
2022-12-09T08:49:11.837Z,0.95
2022-12-09T08:51:41.453Z,1.08
2022-12-09T08:54:09.905Z,1.02
2022-12-09T08:57:29.515Z,1.14
2022-12-09T08:59:57.264Z,1.26
2022-12-09T09:02:49.222Z,1.37
2022-12-09T09:05:17.570Z,1.57
2022-12-09T09:07:47.024Z,1.60
2022-12-09T09:10:16.156Z,1.55
2022-12-09T09:12:44.965Z,1.43
2022-12-09T09:15:14.172Z,1.46
2022-12-09T09:17:48.174Z,1.53
2022-12-09T09:20:19.365Z,1.84
2022-12-09T09:22:49.223Z,1.87
2022-12-09T09:25:17.168Z,1.73
2022-12-09T09:27:45.301Z,2.15
2022-12-09T09:30:13.914Z,2.01
2022-12-09T09:32:42.490Z,2.12
2022-12-09T09:35:11.017Z,2.07
2022-12-09T09:37:38.987Z,2.07
2022-12-09T09:40:11.924Z,2.08
2022-12-09T09:42:48.533Z,2.42
2022-12-09T09:45:20.623Z,2.27
2022-12-09T09:47:54.397Z,2.15
2022-12-09T09:50:29.604Z,2.24
2022-12-09T09:52:58.519Z,2.31
2022-12-09T09:55:37.496Z,2.03
2022-12-09T09:58:14.406Z,1.90
2022-12-09T10:00:49.335Z,2.01
2022-12-09T10:03:28.102Z,2.16
2022-12-09T10:06:00.486Z,2.01
2022-12-09T10:09:03.091Z,1.93
2022-12-09T10:11:40.909Z,2.08
2022-12-09T10:14:16.488Z,1.92
2022-12-09T10:16:49.447Z,1.99
2022-12-09T10:19:26.781Z,1.99
2022-12-09T10:21:55.817Z,1.85
2022-12-09T10:24:29.048Z,1.84
2022-12-09T10:27:06.348Z,1.95
2022-12-09T10:29:47.698Z,1.96
2022-12-09T10:32:19.018Z,2.09
2022-12-09T10:34:47.722Z,2.13
2022-12-09T10:37:26.067Z,2.30
2022-12-09T10:40:00.039Z,2.81
2022-12-09T10:42:48.454Z,2.80
2022-12-09T10:45:16.403Z,3.20
2022-12-09T10:47:52.217Z,2.95
2022-12-09T10:50:31.640Z,2.74
2022-12-09T10:53:06.227Z,2.63
2022-12-09T10:55:38.143Z,2.65
2022-12-09T10:58:17.085Z,2.48
2022-12-09T11:00:45.372Z,2.45
2022-12-09T11:03:29.961Z,2.53
2022-12-09T11:06:03.150Z,2.70
2022-12-09T11:08:32.180Z,2.84
2022-12-09T11:11:01.948Z,2.93
2022-12-09T11:13:39.850Z,3.23
2022-12-09T11:16:09.072Z,2.77
2022-12-09T11:18:44.311Z,2.60
2022-12-09T11:21:33.295Z,2.87
2022-12-09T11:24:03.497Z,3.07
2022-12-09T11:26:38.379Z,2.93
2022-12-09T11:29:15.822Z,3.10
2022-12-09T11:31:44.638Z,3.07
2022-12-09T11:34:19.031Z,2.93
2022-12-09T11:36:51.150Z,3.01
2022-12-09T11:39:24.254Z,3.20
2022-12-09T11:42:17.037Z,3.40
2022-12-09T11:44:54.317Z,3.35
2022-12-09T11:47:26.323Z,3.26
2022-12-09T11:49:58.457Z,3.26
2022-12-09T11:52:29.207Z,3.40
2022-12-09T11:55:20.040Z,3.50
2022-12-09T11:57:52.328Z,3.84
2022-12-09T12:00:25.031Z,4.09
2022-12-09T12:03:00.538Z,4.02
2022-12-09T12:05:34.080Z,3.99
2022-12-09T12:08:13.828Z,3.63
2022-12-09T12:10:44.467Z,3.79
2022-12-09T12:13:20.061Z,3.80
2022-12-09T12:15:54.974Z,3.59
2022-12-09T12:18:23.827Z,3.80
2022-12-09T12:21:18.638Z,3.53
2022-12-09T12:24:22.165Z,3.69
2022-12-09T12:27:00.999Z,3.52
2022-12-09T12:29:40.348Z,3.33
2022-12-09T12:32:22.595Z,3.34
2022-12-09T12:35:01.139Z,3.06
2022-12-09T12:37:40.768Z,3.05
2022-12-09T12:40:15.922Z,3.15
2022-12-09T12:43:14.754Z,3.08
2022-12-09T12:46:07.951Z,3.01
2022-12-09T12:48:48.839Z,2.99
2022-12-09T12:51:26.916Z,3.10
2022-12-09T12:54:16.936Z,3.35
2022-12-09T12:56:51.043Z,3.52
2022-12-09T12:59:24.467Z,3.69
2022-12-09T13:01:54.513Z,3.76
2022-12-09T13:04:28.481Z,3.89
2022-12-09T13:07:02.913Z,3.60
2022-12-09T13:09:37.322Z,3.84
2022-12-09T13:12:12.396Z,3.87
2022-12-09T13:14:52.240Z,3.67
2022-12-09T13:17:23.038Z,3.56
2022-12-09T13:19:55.372Z,3.60
2022-12-09T13:22:28.575Z,3.32
2022-12-09T13:25:01.929Z,3.39
2022-12-09T13:27:39.179Z,3.50
2022-12-09T13:30:13.207Z,3.24
2022-12-09T13:33:01.990Z,3.07
2022-12-09T13:35:40.359Z,3.23
2022-12-09T13:38:25.639Z,3.24
2022-12-09T13:40:53.722Z,3.19
2022-12-09T13:43:27.009Z,3.25
2022-12-09T13:45:57.950Z,3.19
2022-12-09T13:48:46.146Z,3.08
2022-12-09T13:51:16.155Z,3.22
2022-12-09T13:54:03.417Z,3.13
2022-12-09T13:56:33.929Z,3.03
2022-12-09T13:59:28.895Z,3.03
2022-12-09T14:02:01.360Z,2.95
2022-12-09T14:04:31.229Z,2.89
2022-12-09T14:07:10.489Z,2.87
2022-12-09T14:09:51.085Z,2.86
2022-12-09T14:12:51.844Z,2.83
2022-12-09T14:15:36.325Z,2.87
2022-12-09T14:18:06.358Z,2.82
2022-12-09T14:20:40.443Z,2.93
2022-12-09T14:23:19.826Z,2.89
2022-12-09T14:26:05.706Z,2.68
2022-12-09T14:28:55.504Z,2.73
2022-12-09T14:31:50.215Z,2.75
2022-12-09T14:34:26.670Z,2.79
2022-12-09T14:37:03.260Z,2.64
2022-12-09T14:39:44.468Z,2.66
2022-12-09T14:42:21.555Z,2.73
2022-12-09T14:44:55.093Z,2.73
2022-12-09T14:47:26.959Z,2.64
2022-12-09T14:49:56.673Z,2.64
2022-12-09T14:52:28.379Z,2.71
2022-12-09T14:54:58.867Z,2.74
2022-12-09T14:57:31.318Z,2.75
2022-12-09T14:59:58.986Z,2.71
2022-12-09T15:02:30.752Z,2.62
2022-12-09T15:05:00.806Z,2.63
2022-12-09T15:07:30.324Z,2.58
2022-12-09T15:10:00.804Z,2.66
2022-12-09T15:12:32.670Z,2.59
2022-12-09T15:15:07.751Z,2.58
2022-12-09T15:17:45.138Z,2.61
2022-12-09T15:20:23.828Z,2.67
2022-12-09T15:22:53.096Z,2.51
2022-12-09T15:25:23.861Z,2.44
2022-12-09T15:28:00.958Z,2.48
2022-12-09T15:30:33.030Z,2.45
2022-12-09T15:33:01.109Z,2.34
2022-12-09T15:35:34.539Z,2.33
2022-12-09T15:38:05.723Z,2.38
2022-12-09T15:40:37.355Z,2.40
2022-12-09T15:43:10.011Z,2.37
2022-12-09T15:45:43.326Z,2.23
2022-12-09T15:48:15.245Z,2.20
2022-12-09T15:50:50.380Z,2.30
2022-12-09T15:53:24.055Z,2.36
2022-12-09T15:55:57.905Z,2.37
2022-12-09T15:58:29.633Z,2.41
2022-12-09T16:01:00.039Z,2.23
2022-12-09T16:03:33.118Z,2.17
2022-12-09T16:06:04.515Z,2.14
2022-12-09T16:08:34.854Z,2.19
2022-12-09T16:11:04.836Z,2.15
2022-12-09T16:13:32.771Z,2.15
2022-12-09T16:16:02.262Z,2.12
2022-12-09T16:18:34.237Z,2.13
2022-12-09T16:21:24.130Z,2.13
2022-12-09T16:23:54.667Z,2.15
2022-12-09T16:26:33.078Z,2.11
2022-12-09T16:29:02.778Z,2.12
2022-12-09T16:31:31.196Z,2.04
2022-12-09T16:33:59.145Z,2.06
2022-12-09T16:36:29.233Z,2.06
2022-12-09T16:39:34.886Z,1.87
2022-12-09T16:42:03.878Z,1.92
2022-12-09T16:44:34.284Z,1.92
2022-12-09T16:47:12.530Z,1.91
2022-12-09T16:49:41.889Z,1.90
2022-12-09T16:52:13.153Z,1.79
2022-12-09T16:54:41.501Z,1.84
2022-12-09T16:57:13.294Z,1.79
2022-12-09T16:59:41.375Z,1.82
2022-12-09T17:02:17.277Z,1.77
2022-12-09T17:04:45.117Z,1.78
2022-12-09T17:07:12.836Z,1.77
2022-12-09T17:09:40.497Z,1.76
2022-12-09T17:12:08.518Z,1.74
2022-12-09T17:14:37.696Z,1.67
2022-12-09T17:17:05.489Z,1.65
2022-12-09T17:19:33.258Z,1.66
2022-12-09T17:22:02.405Z,1.66
2022-12-09T17:24:33.375Z,1.59
2022-12-09T17:27:01.049Z,1.53
2022-12-09T17:29:28.814Z,1.42
2022-12-09T17:31:57.874Z,1.36
2022-12-09T17:34:25.648Z,1.31
2022-12-09T17:36:54.990Z,1.23
2022-12-09T17:39:24.661Z,1.18
2022-12-09T17:41:52.466Z,1.10
2022-12-09T17:44:24.779Z,1.01
2022-12-09T17:46:52.707Z,0.96
2022-12-09T17:49:22.104Z,1.02
2022-12-09T17:51:49.874Z,0.96
2022-12-09T17:54:17.760Z,0.91
2022-12-09T17:56:46.334Z,0.88
2022-12-09T17:59:15.517Z,0.81
2022-12-09T18:01:46.110Z,0.91
2022-12-09T18:04:15.278Z,0.91
2022-12-09T18:06:46.540Z,0.88
2022-12-09T18:09:16.279Z,0.87
2022-12-09T18:11:44.501Z,0.78
2022-12-09T18:14:12.661Z,0.74
2022-12-09T18:16:40.461Z,0.60
2022-12-09T18:19:12.798Z,0.67
2022-12-09T18:21:40.563Z,0.65
2022-12-09T18:24:10.487Z,0.58
2022-12-09T18:26:41.558Z,0.62
2022-12-09T18:29:09.907Z,0.56
2022-12-09T18:31:37.596Z,0.59
2022-12-09T18:34:05.295Z,0.60
2022-12-09T18:36:32.969Z,0.57
2022-12-09T18:39:00.665Z,0.60
2022-12-09T18:41:31.111Z,0.61
2022-12-09T18:44:00.639Z,0.44
2022-12-09T18:46:30.271Z,0.47
2022-12-09T18:48:59.161Z,0.39
2022-12-09T18:51:27.981Z,0.40
2022-12-09T18:53:57.385Z,0.35
2022-12-09T18:56:25.540Z,0.47
2022-12-09T18:59:10.884Z,0.44
2022-12-09T19:01:41.102Z,0.35
2022-12-09T19:04:12.629Z,0.23
2022-12-09T19:06:42.549Z,0.31
2022-12-09T19:09:12.519Z,0.29
2022-12-09T19:11:42.124Z,0.25
2022-12-09T19:14:12.041Z,0.22
2022-12-09T19:16:40.023Z,0.27
2022-12-09T19:19:10.433Z,0.28
2022-12-09T19:21:39.358Z,0.16
2022-12-09T19:24:10.125Z,0.06
2022-12-09T19:26:38.000Z,0.09
2022-12-09T19:29:08.731Z,0.09
2022-12-09T19:31:40.357Z,0.14
2022-12-09T19:34:10.082Z,0.02
2022-12-09T19:36:37.876Z,-0.01
2022-12-09T19:39:09.176Z,-0.05
2022-12-09T19:41:37.621Z,-0.06
2022-12-09T19:44:05.998Z,-0.13
2022-12-09T19:46:34.671Z,-0.18
2022-12-09T19:49:03.835Z,-0.27
2022-12-09T19:51:32.201Z,-0.26
2022-12-09T19:54:01.570Z,-0.31
2022-12-09T19:56:29.816Z,-0.34
2022-12-09T19:58:58.229Z,-0.41
2022-12-09T20:01:46.975Z,-0.45
2022-12-09T20:04:47.571Z,-0.49
2022-12-09T20:07:08.110Z,-0.48
2022-12-09T20:09:37.213Z,-0.53
2022-12-09T20:12:05.254Z,-0.58
2022-12-09T20:14:33.079Z,-0.63
2022-12-09T20:17:00.868Z,-0.73
2022-12-09T20:19:31.275Z,-0.77
2022-12-09T20:21:59.060Z,-0.80
2022-12-09T20:24:26.938Z,-0.75
2022-12-09T20:26:55.953Z,-0.74
2022-12-09T20:29:23.603Z,-0.84
2022-12-09T20:31:51.430Z,-0.89
2022-12-09T20:34:19.112Z,-0.92
2022-12-09T20:36:48.534Z,-1.00
2022-12-09T20:39:21.509Z,-0.98
2022-12-09T20:41:49.782Z,-0.97
2022-12-09T20:44:19.952Z,-1.00
2022-12-09T20:46:49.454Z,-1.09
2022-12-09T20:49:20.191Z,-1.13
2022-12-09T20:51:53.177Z,-1.12
2022-12-09T20:54:21.050Z,-1.11
2022-12-09T20:56:49.127Z,-1.16
2022-12-09T20:59:18.353Z,-1.18
2022-12-09T21:01:47.406Z,-1.24
2022-12-09T21:04:16.199Z,-1.20
2022-12-09T21:06:44.613Z,-1.25
2022-12-09T21:09:18.747Z,-1.26
2022-12-09T21:11:47.304Z,-1.31
2022-12-09T21:14:18.245Z,-1.34
2022-12-09T21:16:47.159Z,-1.33
2022-12-09T21:19:17.105Z,-1.37
2022-12-09T21:21:48.391Z,-1.45
2022-12-09T21:24:23.182Z,-1.34
2022-12-09T21:26:53.292Z,-1.39
2022-12-09T21:29:22.914Z,-1.32
2022-12-09T21:31:54.670Z,-1.33
2022-12-09T21:34:24.249Z,-1.31
2022-12-09T21:36:53.209Z,-1.29
2022-12-09T21:39:22.566Z,-1.21
2022-12-09T21:41:50.991Z,-1.15
2022-12-09T21:44:22.184Z,-1.19
2022-12-09T21:46:50.188Z,-1.10
2022-12-09T21:49:17.901Z,-1.11
2022-12-09T21:51:46.289Z,-1.06
2022-12-09T21:54:14.257Z,-0.95
2022-12-09T21:56:43.443Z,-0.82
2022-12-09T21:59:12.795Z,-0.74
2022-12-09T22:01:42.568Z,-0.55
2022-12-09T22:04:12.480Z,-0.51
2022-12-09T22:06:40.877Z,-0.46
2022-12-09T22:09:11.741Z,-0.41
2022-12-09T22:11:40.423Z,-0.45
2022-12-09T22:14:12.196Z,-0.51
2022-12-09T22:16:41.950Z,-0.49
2022-12-09T22:19:14.180Z,-0.57
2022-12-09T22:21:42.297Z,-0.68
2022-12-09T22:24:12.866Z,-0.57
2022-12-09T22:26:43.373Z,-0.58
2022-12-09T22:29:14.898Z,-0.52
2022-12-09T22:31:44.095Z,-0.45
2022-12-09T22:34:14.249Z,-0.35
2022-12-09T22:36:42.473Z,-0.34
2022-12-09T22:39:13.808Z,-0.32
2022-12-09T22:41:41.582Z,-0.29
2022-12-09T22:44:11.452Z,-0.28
2022-12-09T22:46:42.165Z,-0.37
2022-12-09T22:49:12.654Z,-0.43
2022-12-09T22:51:41.489Z,-0.43
2022-12-09T22:54:10.564Z,-0.44
2022-12-09T22:56:40.125Z,-0.51
2022-12-09T22:59:07.954Z,-0.45
2022-12-09T23:01:37.318Z,-0.51
2022-12-09T23:04:08.546Z,-0.35
2022-12-09T23:06:38.060Z,-0.37
2022-12-09T23:09:06.408Z,-0.41
2022-12-09T23:11:34.235Z,-0.47
2022-12-09T23:14:01.959Z,-0.49
2022-12-09T23:16:29.977Z,-0.53
2022-12-09T23:18:59.451Z,-0.47
2022-12-09T23:21:30.383Z,-0.41
2022-12-09T23:24:00.811Z,-0.48
2022-12-09T23:26:32.436Z,-0.56
2022-12-09T23:29:14.283Z,-0.51
2022-12-09T23:31:42.755Z,-0.59
2022-12-09T23:34:13.552Z,-0.60
2022-12-09T23:36:44.262Z,-0.59
2022-12-09T23:39:14.615Z,-0.73
2022-12-09T23:41:43.739Z,-0.65
2022-12-09T23:44:13.635Z,-0.69
2022-12-09T23:46:41.942Z,-0.78
2022-12-09T23:49:10.381Z,-0.84
2022-12-09T23:51:40.474Z,-0.86
2022-12-09T23:54:10.923Z,-0.88
2022-12-09T23:56:40.549Z,-0.88
2022-12-09T23:59:10.512Z,-0.89
